Time;durP1;ratioP1;P1;durP2;ratioP2;P2;SDS_P1;SDS_P2;PMS_P1;PMS_P2;Temp;Humidity;BMP_temperature;BMP_pressure;BME280_temperature;BME280_humidity;BME280_pressure;Samples;Min_cycle;Max_cycle;Signal;HPM_P1;HPM_P2
2021/12/25 00:01:45;;;;;;;5.00;2.22;;;-1.60;91.10;;;;;;4975389;28;20074;-67
2021/12/25 00:04:11;;;;;;;4.88;1.95;;;-1.60;91.20;;;;;;4975392;28;20035;-66
2021/12/25 00:06:37;;;;;;;4.93;2.00;;;-1.50;91.30;;;;;;4975350;28;20182;-67
2021/12/25 00:09:04;;;;;;;3.90;1.75;;;-1.50;91.60;;;;;;4978693;28;20026;-67
2021/12/25 00:11:29;;;;;;;2.08;1.08;;;-1.50;91.40;;;;;;4975568;28;20026;-66
2021/12/25 00:13:55;;;;;;;3.63;1.50;;;-1.50;91.40;;;;;;4975187;28;20077;-67
2021/12/25 00:16:20;;;;;;;2.60;1.80;;;-1.40;91.40;;;;;;4976160;28;20037;-67
2021/12/25 00:18:46;;;;;;;2.13;1.33;;;-1.40;91.20;;;;;;4975009;28;20121;-67
2021/12/25 00:21:12;;;;;;;3.28;1.60;;;-1.50;91.30;;;;;;4974740;28;20111;-67
2021/12/25 00:23:38;;;;;;;2.92;1.30;;;-1.40;91.30;;;;;;4974860;28;20150;-67
2021/12/25 00:26:10;;;;;;;3.90;1.80;;;-1.50;91.30;;;;;;4960257;28;20031;-67
2021/12/25 00:29:04;;;;;;;1.67;1.10;;;-1.40;91.40;;;;;;4968482;28;20043;-67
2021/12/25 00:31:31;;;;;;;1.98;1.13;;;-1.40;91.50;;;;;;4974143;28;20035;-67
2021/12/25 00:34:00;;;;;;;2.53;1.30;;;-1.50;91.10;;;;;;4974881;28;20046;-67
2021/12/25 00:36:26;;;;;;;6.05;1.67;;;-1.50;91.20;;;;;;4964001;28;20043;-66
2021/12/25 00:38:53;;;;;;;4.28;2.40;;;-1.50;91.30;;;;;;4974475;28;20031;-67
2021/12/25 00:41:21;;;;;;;4.32;2.65;;;-1.50;91.30;;;;;;4956496;28;20071;-67
2021/12/25 00:43:47;;;;;;;3.80;1.80;;;-1.40;91.40;;;;;;4967470;28;20031;-67
2021/12/25 00:46:13;;;;;;;6.57;1.55;;;-1.40;91.40;;;;;;4975088;28;20031;-67
2021/12/25 00:48:39;;;;;;;4.65;2.20;;;-1.40;91.30;;;;;;4974340;28;20125;-67
2021/12/25 00:51:05;;;;;;;3.47;1.52;;;-1.30;91.30;;;;;;4974782;28;20081;-68
2021/12/25 00:53:31;;;;;;;2.08;1.20;;;-1.40;91.30;;;;;;4974440;28;20027;-67
2021/12/25 00:55:57;;;;;;;5.25;1.98;;;-1.30;91.30;;;;;;4974962;28;20478;-67
2021/12/25 00:58:22;;;;;;;5.15;1.67;;;-1.40;91.20;;;;;;4973300;28;20057;-67
2021/12/25 01:00:48;;;;;;;7.18;2.92;;;-1.40;91.30;;;;;;4974350;28;20057;-67
2021/12/25 01:03:15;;;;;;;5.68;2.58;;;-1.30;91.30;;;;;;4967612;28;20451;-67
2021/12/25 01:05:40;;;;;;;8.77;2.70;;;-1.30;91.20;;;;;;4965674;28;20054;-67
2021/12/25 01:08:06;;;;;;;2.95;1.60;;;-1.30;91.20;;;;;;4973639;28;20046;-67
2021/12/25 01:10:33;;;;;;;4.35;1.85;;;-1.30;91.10;;;;;;4974446;28;20018;-67
2021/12/25 01:13:08;;;;;;;3.50;1.58;;;-1.30;91.00;;;;;;4973944;28;20031;-67
2021/12/25 01:18:53;;;;;;;6.05;1.50;;;-1.30;91.00;;;;;;4973835;28;20043;-67
2021/12/25 01:24:09;;;;;;;4.88;1.40;;;-1.30;90.90;;;;;;4973749;28;20572;-67
2021/12/25 01:26:57;;;;;;;3.45;1.60;;;-1.40;90.60;;;;;;4973246;28;20066;-67
2021/12/25 01:29:36;;;;;;;2.17;1.17;;;-1.40;90.60;;;;;;4972886;28;20047;-66
2021/12/25 01:35:17;;;;;;;2.78;1.05;;;-1.40;90.90;;;;;;4973539;28;20072;-66
2021/12/25 01:37:58;;;;;;;2.08;1.40;;;-1.40;90.90;;;;;;4973306;28;20078;-67
2021/12/25 01:40:49;;;;;;;5.78;2.10;;;-1.40;90.90;;;;;;4974005;28;20045;-67
2021/12/25 01:48:43;;;;;;;2.67;1.88;;;-1.30;90.90;;;;;;4973118;28;20091;-67
2021/12/25 01:51:08;;;;;;;3.20;1.30;;;-1.30;90.90;;;;;;4973831;28;20035;-67
2021/12/25 01:53:34;;;;;;;3.72;1.63;;;-1.30;90.90;;;;;;4970643;28;20027;-67
2021/12/25 01:56:01;;;;;;;6.43;1.55;;;-1.40;90.80;;;;;;4957183;28;20074;-67
2021/12/25 01:58:26;;;;;;;3.10;1.42;;;-1.40;91.00;;;;;;4963404;28;20634;-68
2021/12/25 02:00:54;;;;;;;2.88;1.20;;;-1.40;91.10;;;;;;4972850;28;20050;-67
2021/12/25 02:03:22;;;;;;;2.72;1.70;;;-1.30;91.10;;;;;;4972758;28;20037;-67
2021/12/25 02:05:48;;;;;;;2.47;1.27;;;-1.30;91.10;;;;;;4961286;28;20480;-67
2021/12/25 02:08:14;;;;;;;4.70;1.75;;;-1.30;91.10;;;;;;4973045;28;20039;-67
2021/12/25 02:10:40;;;;;;;2.15;1.15;;;-1.30;91.00;;;;;;4973986;28;20027;-67
2021/12/25 02:13:06;;;;;;;2.53;1.30;;;-1.30;91.10;;;;;;4972435;28;20049;-67
2021/12/25 02:15:32;;;;;;;3.05;1.40;;;-1.30;91.10;;;;;;4973237;28;20471;-67
2021/12/25 02:18:12;;;;;;;3.05;1.63;;;-1.30;91.10;;;;;;4972408;28;20074;-67
2021/12/25 02:20:57;;;;;;;3.58;1.33;;;-1.30;91.20;;;;;;4973237;28;20034;-67
2021/12/25 02:23:24;;;;;;;2.38;1.38;;;-1.20;91.20;;;;;;4973016;28;20121;-67
2021/12/25 02:25:51;;;;;;;2.58;1.45;;;-1.20;91.20;;;;;;4972935;28;20035;-67
2021/12/25 02:28:17;;;;;;;4.07;1.15;;;-1.20;91.20;;;;;;4972811;28;20034;-67
2021/12/25 02:30:45;;;;;;;3.97;1.60;;;-1.20;91.20;;;;;;4970988;28;20041;-67
2021/12/25 02:33:10;;;;;;;3.55;1.20;;;-1.10;91.30;;;;;;4972373;28;20069;-67
2021/12/25 02:35:36;;;;;;;4.70;2.20;;;-1.10;91.20;;;;;;4971460;28;20117;-67
2021/12/25 02:38:03;;;;;;;6.05;2.15;;;-1.20;91.20;;;;;;4971186;28;20023;-67
2021/12/25 02:40:29;;;;;;;8.57;2.83;;;-1.20;91.20;;;;;;4973312;28;20057;-67
2021/12/25 02:42:54;;;;;;;4.53;2.47;;;-1.20;91.10;;;;;;4971909;28;20533;-67
2021/12/25 02:45:21;;;;;;;5.22;2.55;;;-1.20;91.10;;;;;;4973141;28;20034;-67
2021/12/25 02:47:49;;;;;;;6.13;2.20;;;-1.20;91.00;;;;;;4969066;28;20041;-67
2021/12/25 02:50:24;;;;;;;4.88;1.73;;;-1.20;91.00;;;;;;4959225;28;20566;-68
2021/12/25 02:52:51;;;;;;;5.05;1.70;;;-1.20;90.90;;;;;;4971947;28;20034;-67
2021/12/25 02:55:17;;;;;;;6.03;2.30;;;-1.20;90.90;;;;;;4971835;28;20054;-68
2021/12/25 02:57:49;;;;;;;3.10;1.67;;;-1.20;90.90;;;;;;4968980;28;20027;-68
2021/12/25 03:00:15;;;;;;;6.43;2.45;;;-1.20;91.00;;;;;;4972397;28;20138;-68
2021/12/25 03:02:40;;;;;;;6.00;2.00;;;-1.20;90.90;;;;;;4972272;28;20035;-67
2021/12/25 03:05:06;;;;;;;7.35;2.38;;;-1.20;90.90;;;;;;4971306;28;20090;-67
2021/12/25 03:07:32;;;;;;;6.50;2.05;;;-1.30;90.90;;;;;;4970224;28;20397;-68
2021/12/25 03:09:57;;;;;;;5.03;2.15;;;-1.30;90.90;;;;;;4954370;28;20019;-68
2021/12/25 03:12:32;;;;;;;6.43;2.30;;;-1.30;91.00;;;;;;4971471;28;20077;-68
2021/12/25 03:15:05;;;;;;;;;;;-1.30;91.00;;;;;;4972599;28;20046;-68
2021/12/25 03:17:33;;;;;;;4.88;2.40;;;-1.30;90.90;;;;;;4954136;28;19921;-68
2021/12/25 03:19:58;;;;;;;5.93;2.20;;;-1.40;91.00;;;;;;4971815;28;20027;-67
2021/12/25 03:22:24;;;;;;;7.50;2.30;;;-1.40;91.00;;;;;;4968887;28;20362;-68
2021/12/25 03:24:50;;;;;;;6.90;2.97;;;-1.30;91.00;;;;;;4969510;28;20027;-68
2021/12/25 03:27:17;;;;;;;7.03;3.05;;;-1.40;90.90;;;;;;4968739;28;20056;-68
2021/12/25 03:29:43;;;;;;;6.97;2.58;;;-1.30;90.90;;;;;;4970734;28;20466;-68
2021/12/25 03:32:09;;;;;;;5.72;2.08;;;-1.40;90.80;;;;;;4972003;28;20030;-68
2021/12/25 03:34:35;;;;;;;6.38;2.75;;;-1.30;90.70;;;;;;4972303;28;20054;-68
2021/12/25 03:37:01;;;;;;;4.25;2.22;;;-1.40;90.50;;;;;;4972308;28;20015;-67
2021/12/25 03:39:27;;;;;;;4.10;1.75;;;-1.40;90.70;;;;;;4971702;28;20418;-69
2021/12/25 03:41:52;;;;;;;5.50;3.00;;;-1.40;90.70;;;;;;4971076;28;20027;-68
2021/12/25 03:44:18;;;;;;;2.95;1.65;;;-1.40;90.70;;;;;;4971664;28;20042;-68
2021/12/25 03:46:44;;;;;;;3.85;1.50;;;-1.40;90.60;;;;;;4972009;28;20118;-68
2021/12/25 03:49:27;;;;;;;4.53;1.63;;;-1.40;90.70;;;;;;4971348;28;20030;-68
2021/12/25 03:57:48;;;;;;;4.20;1.65;;;-1.30;90.50;;;;;;4971207;28;20207;-68
2021/12/25 04:00:15;;;;;;;2.90;1.40;;;-1.30;90.50;;;;;;4971828;28;20034;-68
2021/12/25 04:02:53;;;;;;;2.55;1.45;;;-1.30;90.50;;;;;;4967791;28;20106;-68
2021/12/25 04:05:24;;;;;;;3.78;2.42;;;-1.30;90.50;;;;;;4966267;28;20382;-68
2021/12/25 04:10:22;;;;;;;3.97;1.38;;;-1.30;90.40;;;;;;4968591;28;20038;-68
2021/12/25 04:12:47;;;;;;;3.97;2.00;;;-1.30;90.50;;;;;;4970208;28;20030;-68
2021/12/25 04:15:13;;;;;;;6.90;2.13;;;-1.30;90.60;;;;;;4972055;28;20023;-67
2021/12/25 04:17:38;;;;;;;5.93;2.47;;;-1.30;90.60;;;;;;4970902;28;20083;-68
2021/12/25 04:20:04;;;;;;;5.30;2.33;;;-1.20;90.60;;;;;;4972299;28;20164;-68
2021/12/25 04:22:41;;;;;;;10.10;2.88;;;-1.30;90.50;;;;;;4968647;28;20038;-68
2021/12/25 04:25:07;;;;;;;5.82;2.15;;;-1.30;90.50;;;;;;4953044;28;20104;-68
2021/12/25 04:27:33;;;;;;;5.65;2.00;;;-1.30;90.40;;;;;;4956533;28;20061;-68
2021/12/25 04:30:05;;;;;;;4.10;1.63;;;-1.30;90.40;;;;;;4966640;28;20770;-67
2021/12/25 04:32:59;;;;;;;4.57;1.80;;;-1.20;90.40;;;;;;4971479;28;20027;-68
2021/12/25 05:04:57;;;;;;;4.10;1.50;;;-1.30;90.20;;;;;;4975051;28;20099;-68
2021/12/25 05:07:22;;;;;;;4.80;2.28;;;-1.40;90.20;;;;;;4971756;28;20053;-68
2021/12/25 05:09:47;;;;;;;7.40;2.80;;;-1.50;90.30;;;;;;4962770;28;20030;-67
2021/12/25 05:12:13;;;;;;;3.45;1.80;;;-1.50;90.20;;;;;;4963719;28;20482;-68
2021/12/25 05:14:39;;;;;;;5.80;1.73;;;-1.60;90.30;;;;;;4974919;28;20066;-68
2021/12/25 05:17:06;;;;;;;3.58;1.77;;;-1.60;90.20;;;;;;4973718;28;20031;-68
2021/12/25 05:19:31;;;;;;;2.72;1.35;;;-1.60;90.30;;;;;;4974683;28;20038;-68
2021/12/25 05:21:57;;;;;;;2.05;1.20;;;-1.70;90.30;;;;;;4974253;28;20034;-68
2021/12/25 05:24:23;;;;;;;3.97;1.20;;;-1.70;90.40;;;;;;4973746;28;20180;-68
2021/12/25 05:26:48;;;;;;;3.60;1.15;;;-1.70;90.30;;;;;;4974721;28;20030;-68
2021/12/25 05:29:22;;;;;;;3.00;1.30;;;-1.70;90.30;;;;;;4973272;28;20037;-68
2021/12/25 05:31:47;;;;;;;3.08;1.63;;;-1.70;90.40;;;;;;4974207;28;20101;-68
2021/12/25 05:34:13;;;;;;;7.18;1.83;;;-1.70;90.30;;;;;;4973481;28;20031;-67
2021/12/25 05:36:38;;;;;;;2.85;1.65;;;-1.80;90.30;;;;;;4973514;28;20037;-67
2021/12/25 05:39:08;;;;;;;5.65;1.83;;;-1.80;90.40;;;;;;4973538;28;20027;-68
2021/12/25 05:41:34;;;;;;;4.03;1.50;;;-1.80;90.40;;;;;;4974539;28;20088;-68
2021/12/25 05:43:59;;;;;;;3.47;1.58;;;-1.80;90.50;;;;;;4973334;28;20019;-68
2021/12/25 05:46:25;;;;;;;5.60;1.92;;;-1.80;90.50;;;;;;4974322;28;20027;-68
2021/12/25 05:48:51;;;;;;;6.38;1.52;;;-1.80;90.60;;;;;;4972515;28;20031;-68
2021/12/25 05:51:18;;;;;;;3.08;1.40;;;-1.70;90.60;;;;;;4972290;28;20498;-67
2021/12/25 05:53:44;;;;;;;4.97;2.00;;;-1.70;90.70;;;;;;4960878;28;20031;-68
2021/12/25 05:56:10;;;;;;;4.22;1.70;;;-1.70;90.70;;;;;;4954720;28;20375;-68
2021/12/25 05:58:35;;;;;;;4.05;2.03;;;-1.70;90.70;;;;;;4969587;28;20042;-67
2021/12/25 06:01:02;;;;;;;5.05;1.70;;;-1.70;90.70;;;;;;4973765;28;20055;-67
2021/12/25 06:03:27;;;;;;;3.47;1.70;;;-1.70;90.70;;;;;;4973090;28;20039;-67
2021/12/25 06:05:53;;;;;;;2.38;1.40;;;-1.70;90.70;;;;;;4972780;28;20062;-68
2021/12/25 06:08:18;;;;;;;1.98;0.95;;;-1.70;90.70;;;;;;4972745;28;20034;-68
2021/12/25 06:10:44;;;;;;;2.53;1.10;;;-1.80;90.70;;;;;;4973528;28;20054;-67
2021/12/25 06:13:14;;;;;;;2.78;1.42;;;-1.80;90.60;;;;;;4973003;28;20027;-68
2021/12/25 06:15:40;;;;;;;1.27;0.90;;;-1.80;90.60;;;;;;4973373;28;20038;-68
2021/12/25 06:18:08;;;;;;;4.03;1.70;;;-1.80;90.60;;;;;;4973126;28;20023;-68
2021/12/25 06:20:34;;;;;;;2.58;1.50;;;-1.70;90.60;;;;;;4973191;28;20039;-68
2021/12/25 06:22:59;;;;;;;3.35;1.58;;;-1.80;90.60;;;;;;4971240;28;20111;-68
2021/12/25 06:25:25;;;;;;;2.95;1.40;;;-1.80;90.60;;;;;;4954933;28;20027;-68
2021/12/25 06:27:50;;;;;;;4.80;1.90;;;-1.80;90.70;;;;;;4971767;28;20035;-67
2021/12/25 06:30:16;;;;;;;1.60;1.10;;;-1.80;90.70;;;;;;4965213;28;20549;-67
2021/12/25 06:32:41;;;;;;;4.25;1.48;;;-1.80;90.70;;;;;;4972428;28;20027;-67
2021/12/25 06:35:07;;;;;;;2.33;1.30;;;-1.70;90.80;;;;;;4972632;28;20102;-68
2021/12/25 06:37:33;;;;;;;6.00;2.05;;;-1.70;90.80;;;;;;4972413;28;20510;-68
2021/12/25 06:39:58;;;;;;;3.42;1.33;;;-1.70;90.90;;;;;;4972156;28;20023;-69
2021/12/25 06:42:24;;;;;;;2.97;1.65;;;-1.70;90.90;;;;;;4972607;28;20462;-69
2021/12/25 06:44:50;;;;;;;4.00;1.98;;;-1.70;90.90;;;;;;4973174;28;20034;-68
2021/12/25 06:47:15;;;;;;;5.35;1.95;;;-1.70;90.90;;;;;;4971855;28;20379;-69
2021/12/25 06:49:41;;;;;;;6.60;1.83;;;-1.70;90.90;;;;;;4972722;28;20046;-68
2021/12/25 06:52:07;;;;;;;3.55;1.90;;;-1.70;90.90;;;;;;4972255;28;20517;-68
2021/12/25 06:54:35;;;;;;;4.43;2.10;;;-1.70;90.80;;;;;;4972428;28;20030;-68
2021/12/25 06:57:02;;;;;;;7.47;2.15;;;-1.60;90.90;;;;;;4973107;28;20031;-68
2021/12/25 06:59:30;;;;;;;4.75;1.77;;;-1.60;91.00;;;;;;4972445;28;20126;-68
2021/12/25 07:01:55;;;;;;;7.55;1.85;;;-1.60;90.70;;;;;;4970970;28;20561;-67
2021/12/25 07:04:21;;;;;;;3.90;1.95;;;-1.50;90.70;;;;;;4970404;28;20030;-67
2021/12/25 07:06:47;;;;;;;5.05;2.03;;;-1.60;90.70;;;;;;4972623;28;20502;-67
2021/12/25 07:09:13;;;;;;;6.40;2.10;;;-1.60;90.80;;;;;;4971808;28;20073;-68
2021/12/25 07:11:38;;;;;;;4.75;2.25;;;-1.60;90.90;;;;;;4972893;28;20085;-68
2021/12/25 07:14:05;;;;;;;5.38;1.98;;;-1.60;90.80;;;;;;4960374;28;20031;-68
2021/12/25 07:16:31;;;;;;;4.10;2.30;;;-1.60;90.70;;;;;;4972809;28;20035;-67
2021/12/25 07:18:57;;;;;;;6.32;3.17;;;-1.60;90.70;;;;;;4968410;28;20624;-69
2021/12/25 07:21:23;;;;;;;5.45;2.30;;;-1.60;90.80;;;;;;4973009;28;20027;-68
2021/12/25 07:23:48;;;;;;;4.70;2.08;;;-1.70;90.90;;;;;;4971558;28;20114;-68
2021/12/25 07:26:17;;;;;;;7.70;2.15;;;-1.70;91.00;;;;;;4956787;28;20051;-68
2021/12/25 07:28:43;;;;;;;6.63;2.60;;;-1.70;91.10;;;;;;4964394;28;20490;-68
2021/12/25 07:31:09;;;;;;;8.05;2.30;;;-1.70;91.20;;;;;;4972305;28;20494;-68
2021/12/25 07:33:36;;;;;;;6.97;2.92;;;-1.70;91.20;;;;;;4971165;28;20035;-68
2021/12/25 07:36:03;;;;;;;5.75;2.17;;;-1.70;91.20;;;;;;4971823;28;20626;-68
2021/12/25 07:38:29;;;;;;;3.85;1.70;;;-1.70;91.20;;;;;;4971983;28;20401;-68
2021/12/25 07:40:55;;;;;;;5.78;1.80;;;-1.70;91.10;;;;;;4967424;28;20071;-69
2021/12/25 07:43:21;;;;;;;2.95;1.55;;;-1.60;91.10;;;;;;4962905;28;20482;-67
2021/12/25 07:45:47;;;;;;;3.72;1.50;;;-1.70;91.00;;;;;;4962371;28;20166;-68
2021/12/25 07:48:14;;;;;;;4.78;2.67;;;-1.60;91.10;;;;;;4956213;28;20150;-67
2021/12/25 07:50:40;;;;;;;4.97;2.63;;;-1.60;91.00;;;;;;4955953;28;20043;-67
2021/12/25 07:53:06;;;;;;;5.20;2.53;;;-1.60;91.00;;;;;;4954737;28;20034;-69
2021/12/25 07:55:32;;;;;;;4.05;2.35;;;-1.60;91.00;;;;;;4953415;28;20027;-70
2021/12/25 07:57:59;;;;;;;5.00;2.63;;;-1.60;91.00;;;;;;4955990;28;20104;-70
2021/12/25 08:00:25;;;;;;;5.47;2.15;;;-1.60;91.10;;;;;;4954029;28;20089;-70
2021/12/25 08:02:51;;;;;;;5.32;2.30;;;-1.50;91.10;;;;;;4956137;28;20118;-70
2021/12/25 08:05:17;;;;;;;4.18;2.10;;;-1.60;91.00;;;;;;4955929;28;20039;-69
2021/12/25 08:07:42;;;;;;;4.20;2.40;;;-1.50;91.00;;;;;;4956796;28;20666;-70
2021/12/25 08:10:13;;;;;;;5.18;2.63;;;-1.50;91.00;;;;;;4956901;28;20039;-70
2021/12/25 08:12:41;;;;;;;5.85;2.75;;;-1.50;91.00;;;;;;4955067;28;20493;-69
2021/12/25 08:15:08;;;;;;;7.28;3.55;;;-1.50;91.10;;;;;;4958670;28;20030;-69
2021/12/25 08:17:34;;;;;;;7.47;3.08;;;-1.50;91.10;;;;;;4961172;28;20113;-69
2021/12/25 08:20:00;;;;;;;7.05;3.00;;;-1.50;91.20;;;;;;4959040;28;20497;-70
2021/12/25 08:22:25;;;;;;;4.10;2.10;;;-1.50;91.30;;;;;;4959930;28;20470;-69
2021/12/25 08:24:51;;;;;;;5.60;2.17;;;-1.40;91.30;;;;;;4960717;28;20040;-70
2021/12/25 08:27:17;;;;;;;5.85;2.45;;;-1.40;91.20;;;;;;4961849;28;20066;-70
2021/12/25 08:29:43;;;;;;;3.45;2.20;;;-1.40;91.20;;;;;;4965136;28;20035;-70
2021/12/25 08:32:09;;;;;;;4.53;2.53;;;-1.40;91.20;;;;;;4959109;28;20089;-70
2021/12/25 08:34:37;;;;;;;4.43;2.50;;;-1.40;91.20;;;;;;4958516;28;20031;-70
2021/12/25 08:37:02;;;;;;;4.35;2.25;;;-1.40;91.20;;;;;;4958776;28;20711;-70
2021/12/25 08:39:28;;;;;;;3.47;2.20;;;-1.30;91.30;;;;;;4959314;28;20038;-70
2021/12/25 08:42:01;;;;;;;4.82;2.08;;;-1.30;91.30;;;;;;4957839;28;20055;-70
2021/12/25 08:44:36;;;;;;;4.32;2.40;;;-1.20;91.40;;;;;;4958849;28;20121;-70
2021/12/25 08:47:05;;;;;;;4.43;1.92;;;-1.20;91.40;;;;;;4958799;28;22207;-70
2021/12/25 08:49:34;;;;;;;3.58;2.33;;;-1.10;91.40;;;;;;4961264;28;20062;-69
2021/12/25 08:52:08;;;;;;;6.40;2.67;;;-1.10;91.40;;;;;;4961055;28;20038;-68
2021/12/25 08:54:35;;;;;;;5.60;2.88;;;-1.10;91.30;;;;;;4957976;28;20046;-68
2021/12/25 08:57:02;;;;;;;7.85;2.60;;;-1.00;91.40;;;;;;4952550;28;20039;-68
2021/12/25 08:59:28;;;;;;;4.28;2.80;;;-1.00;91.30;;;;;;4959036;28;20152;-69
2021/12/25 09:01:55;;;;;;;5.88;2.65;;;-0.90;91.30;;;;;;4957382;28;20057;-68
2021/12/25 09:04:21;;;;;;;6.53;2.75;;;-0.90;91.30;;;;;;4960422;28;20038;-68
2021/12/25 09:06:46;;;;;;;5.07;2.58;;;-0.80;91.30;;;;;;4958477;28;20054;-68
2021/12/25 09:09:12;;;;;;;6.65;3.47;;;-0.80;91.30;;;;;;4960012;28;20022;-68
2021/12/25 09:11:39;;;;;;;5.32;2.60;;;-0.70;91.30;;;;;;4958582;28;20045;-68
2021/12/25 09:14:05;;;;;;;5.47;2.80;;;-0.70;91.40;;;;;;4959955;28;20034;-68
2021/12/25 09:16:31;;;;;;;5.93;2.65;;;-0.70;91.40;;;;;;4957498;28;20027;-68
2021/12/25 09:18:56;;;;;;;4.78;2.30;;;-0.70;91.40;;;;;;4959859;28;20031;-68
2021/12/25 09:21:22;;;;;;;4.47;2.67;;;-0.60;91.40;;;;;;4957340;28;20565;-67
2021/12/25 09:23:48;;;;;;;4.68;2.30;;;-0.60;91.50;;;;;;4959689;28;20045;-67
2021/12/25 09:26:14;;;;;;;4.90;2.38;;;-0.50;91.50;;;;;;4958547;28;20134;-68
2021/12/25 09:28:39;;;;;;;3.65;2.17;;;-0.40;91.50;;;;;;4959032;28;20031;-68
2021/12/25 09:31:05;;;;;;;4.72;2.38;;;-0.40;91.50;;;;;;4959017;28;20466;-68
2021/12/25 09:33:31;;;;;;;4.68;2.60;;;-0.40;91.50;;;;;;4965262;28;20035;-68
2021/12/25 09:35:57;;;;;;;5.03;2.53;;;-0.30;91.50;;;;;;4959604;28;20031;-68
2021/12/25 09:38:23;;;;;;;5.10;2.85;;;-0.30;91.50;;;;;;4958813;28;20062;-68
2021/12/25 09:40:48;;;;;;;4.25;2.22;;;-0.30;91.50;;;;;;4957934;28;20061;-68
2021/12/25 09:43:17;;;;;;;5.55;2.45;;;-0.20;91.40;;;;;;4957795;28;20061;-68
2021/12/25 09:45:43;;;;;;;6.43;2.90;;;-0.10;91.40;;;;;;4957963;28;20070;-66
2021/12/25 09:48:09;;;;;;;5.30;2.63;;;-0.10;91.30;;;;;;4958123;28;20547;-66
2021/12/25 09:50:34;;;;;;;7.53;3.30;;;-0.10;91.30;;;;;;4957184;28;20430;-68
2021/12/25 09:53:05;;;;;;;5.18;2.47;;;0.00;91.20;;;;;;4958472;28;20438;-69
2021/12/25 09:55:31;;;;;;;5.43;2.53;;;0.00;91.20;;;;;;4957664;28;20058;-69
2021/12/25 09:57:56;;;;;;;4.00;2.33;;;0.00;91.10;;;;;;4958647;28;22132;-69
2021/12/25 10:00:23;;;;;;;5.10;2.40;;;0.00;91.10;;;;;;4956331;28;20085;-68
2021/12/25 10:02:54;;;;;;;4.45;2.47;;;0.00;91.10;;;;;;4958451;28;20038;-69
2021/12/25 10:05:36;;;;;;;4.22;2.33;;;0.10;91.00;;;;;;4956071;28;20030;-68
2021/12/25 10:08:20;;;;;;;8.90;2.83;;;0.10;90.90;;;;;;4959219;28;20098;-68
2021/12/25 10:11:00;;;;;;;5.50;3.08;;;0.10;90.90;;;;;;4956161;28;20035;-68
2021/12/25 10:13:39;;;;;;;8.88;3.10;;;0.10;90.80;;;;;;4957789;28;20034;-67
2021/12/25 10:16:31;;;;;;;7.93;3.78;;;0.10;90.80;;;;;;4956032;28;20037;-68
2021/12/25 10:19:16;;;;;;;10.05;3.72;;;0.10;90.80;;;;;;4970856;28;20034;-68
2021/12/25 10:21:42;;;;;;;4.35;2.40;;;0.20;90.80;;;;;;4973169;28;20035;-68
2021/12/25 10:24:17;;;;;;;8.63;3.00;;;0.20;90.80;;;;;;4957732;28;20442;-68
2021/12/25 10:26:45;;;;;;;7.07;2.90;;;0.30;90.70;;;;;;4973071;28;20034;-68
2021/12/25 10:29:25;;;;;;;4.53;2.53;;;0.30;90.60;;;;;;4972356;28;20536;-67
2021/12/25 10:31:53;;;;;;;4.22;2.80;;;0.30;90.50;;;;;;4973133;28;20027;-68
2021/12/25 10:34:21;;;;;;;5.03;2.45;;;0.30;90.40;;;;;;4967069;28;20134;-67
2021/12/25 10:36:47;;;;;;;4.15;2.20;;;0.30;90.40;;;;;;4971549;28;20058;-68
2021/12/25 10:39:27;;;;;;;4.90;2.33;;;0.30;90.00;;;;;;4972514;28;20050;-69
2021/12/25 10:41:59;;;;;;;7.18;2.30;;;0.20;89.10;;;;;;4973420;28;20037;-67
2021/12/25 10:44:34;;;;;;;7.00;2.55;;;0.20;89.70;;;;;;4954979;28;20467;-67
2021/12/25 10:47:02;;;;;;;5.07;2.20;;;0.20;89.70;;;;;;4963923;28;20031;-66
2021/12/25 10:49:34;;;;;;;4.95;2.70;;;0.30;89.90;;;;;;4988725;28;20100;-68
2021/12/25 10:52:09;;;;;;;5.55;3.40;;;0.30;89.80;;;;;;4955106;28;20042;-68
2021/12/25 10:54:38;;;;;;;6.63;3.05;;;0.30;89.60;;;;;;4956254;28;20442;-68
2021/12/25 10:57:05;;;;;;;6.95;2.42;;;0.30;89.60;;;;;;4956083;28;20041;-69
2021/12/25 10:59:45;;;;;;;5.82;3.00;;;0.30;89.40;;;;;;4958979;28;20027;-69
2021/12/25 11:02:28;;;;;;;4.30;2.20;;;0.30;88.60;;;;;;4956460;28;20502;-69
2021/12/25 11:04:54;;;;;;;6.25;2.20;;;0.40;88.70;;;;;;4956625;28;20039;-69
2021/12/25 11:07:19;;;;;;;5.88;2.58;;;0.30;87.70;;;;;;4958938;28;20508;-70
2021/12/25 11:10:10;;;;;;;5.55;2.70;;;0.30;87.90;;;;;;4955992;28;20023;-69
2021/12/25 11:12:36;;;;;;;8.00;2.60;;;0.30;88.30;;;;;;4958359;28;20042;-69
2021/12/25 11:15:10;;;;;;;3.83;2.53;;;0.30;88.50;;;;;;4956024;28;20034;-68
2021/12/25 11:17:39;;;;;;;4.43;2.45;;;0.30;88.50;;;;;;4957769;28;20031;-69
2021/12/25 11:20:05;;;;;;;4.00;2.20;;;0.40;88.60;;;;;;4955399;28;20501;-69
2021/12/25 11:22:51;;;;;;;5.88;2.60;;;0.40;88.60;;;;;;4954728;28;20027;-69
2021/12/25 11:25:19;;;;;;;7.38;2.50;;;0.50;88.60;;;;;;4954121;28;20062;-69
2021/12/25 11:27:46;;;;;;;6.25;2.80;;;0.50;88.70;;;;;;4955759;28;20070;-69
2021/12/25 11:30:13;;;;;;;3.92;2.42;;;0.60;88.70;;;;;;4977702;28;20031;-68
2021/12/25 11:32:38;;;;;;;5.10;2.42;;;0.70;88.70;;;;;;4956780;28;20093;-69
2021/12/25 11:35:05;;;;;;;6.10;2.20;;;0.80;88.70;;;;;;4955635;28;20027;-68
2021/12/25 11:37:31;;;;;;;4.68;2.50;;;0.70;88.60;;;;;;4968571;28;20031;-69
2021/12/25 11:39:57;;;;;;;5.18;2.42;;;0.80;88.60;;;;;;4972791;28;20590;-68
2021/12/25 11:42:25;;;;;;;4.72;2.65;;;0.90;88.60;;;;;;4973629;28;20043;-67
2021/12/25 11:44:53;;;;;;;4.07;2.20;;;0.90;88.50;;;;;;4974126;28;20042;-68
2021/12/25 11:47:37;;;;;;;5.03;2.45;;;1.00;88.60;;;;;;4975590;28;20042;-66
2021/12/25 11:50:10;;;;;;;7.35;3.03;;;1.00;88.20;;;;;;4977462;28;20031;-68
2021/12/25 11:52:55;;;;;;;9.90;3.33;;;1.00;88.10;;;;;;4970516;28;20440;-68
2021/12/25 11:55:49;;;;;;;;;;;1.00;88.10;;;;;;4959200;28;20023;-69
2021/12/25 11:58:46;;;;;;;4.20;2.20;;;1.00;88.40;;;;;;4960168;28;19914;-68
2021/12/25 12:01:29;;;;;;;5.32;2.45;;;1.10;88.30;;;;;;4957495;28;20153;-68
2021/12/25 12:04:24;;;;;;;7.30;2.20;;;1.10;88.10;;;;;;4961286;28;20038;-69
2021/12/25 12:07:03;;;;;;;5.13;2.50;;;1.20;88.00;;;;;;4960021;28;20033;-69
2021/12/25 12:09:33;;;;;;;5.93;2.42;;;1.20;87.80;;;;;;4960580;28;20768;-68
2021/12/25 12:12:07;;;;;;;4.47;2.38;;;1.30;87.60;;;;;;4958444;28;20045;-68
2021/12/25 12:14:33;;;;;;;7.43;2.45;;;1.30;87.40;;;;;;4959976;28;20031;-68
2021/12/25 12:17:19;;;;;;;6.00;2.40;;;1.30;87.30;;;;;;4960271;28;20038;-68
2021/12/25 12:19:47;;;;;;;4.18;2.03;;;1.30;87.10;;;;;;4959792;28;20167;-68
2021/12/25 12:25:13;;;;;;;4.53;2.00;;;1.30;87.00;;;;;;4957047;28;20445;-69
2021/12/25 12:27:41;;;;;;;7.07;2.90;;;1.30;86.90;;;;;;4958842;28;20049;-68
2021/12/25 12:30:13;;;;;;;4.97;2.00;;;1.50;86.90;;;;;;4967622;28;20050;-69
2021/12/25 12:32:46;;;;;;;4.63;2.20;;;1.30;86.60;;;;;;4966766;28;20125;-69
2021/12/25 12:35:35;;;;;;;3.72;2.00;;;1.40;86.40;;;;;;4974855;28;20050;-68
2021/12/25 12:38:42;;;;;;;5.50;2.63;;;1.40;86.20;;;;;;4966229;28;20039;-69
2021/12/25 12:41:17;;;;;;;3.75;1.70;;;1.40;86.00;;;;;;4957834;28;20034;-69
2021/12/25 12:43:56;;;;;;;3.45;1.70;;;1.40;86.00;;;;;;4961795;28;20034;-68
2021/12/25 12:47:01;;;;;;;5.35;2.30;;;1.40;85.90;;;;;;4959516;28;20045;-68
2021/12/25 12:49:53;;;;;;;3.97;2.03;;;1.40;85.70;;;;;;4905567;29;20039;-69
2021/12/25 12:52:39;;;;;;;5.03;1.80;;;1.40;85.60;;;;;;4919006;29;20095;-68
2021/12/25 12:55:25;;;;;;;3.53;2.40;;;1.40;85.10;;;;;;4949425;28;20054;-68
2021/12/25 12:58:08;;;;;;;4.03;2.20;;;1.40;84.60;;;;;;4959273;28;20237;-68
2021/12/25 13:00:33;;;;;;;5.68;2.55;;;1.40;84.40;;;;;;4957055;28;20137;-68
2021/12/25 13:02:59;;;;;;;3.47;2.13;;;1.40;84.20;;;;;;4960065;28;20039;-68
2021/12/25 13:05:30;;;;;;;4.00;2.00;;;1.40;84.10;;;;;;4958239;28;20028;-68
2021/12/25 13:07:58;;;;;;;4.60;2.50;;;1.40;84.10;;;;;;4960103;28;20078;-69
2021/12/25 13:10:41;;;;;;;4.68;2.40;;;1.40;84.10;;;;;;4958438;28;20101;-68
2021/12/25 13:13:13;;;;;;;5.32;2.90;;;1.40;83.80;;;;;;4960131;28;20510;-69
2021/12/25 13:15:41;;;;;;;4.78;2.42;;;1.40;83.70;;;;;;4971555;28;20089;-69
2021/12/25 13:18:07;;;;;;;5.63;2.50;;;1.40;83.80;;;;;;4973578;28;20034;-69
2021/12/25 13:20:40;;;;;;;9.10;2.25;;;1.40;83.60;;;;;;4974307;28;20034;-68
2021/12/25 13:23:15;;;;;;;3.78;2.55;;;1.40;83.90;;;;;;4974139;28;20090;-69
2021/12/25 13:25:47;;;;;;;5.75;2.70;;;1.40;83.40;;;;;;4972000;28;20042;-69
2021/12/25 13:28:13;;;;;;;7.70;2.58;;;1.50;83.50;;;;;;4959364;28;20055;-69
2021/12/25 13:30:43;;;;;;;4.95;2.40;;;1.50;83.60;;;;;;4957987;28;20034;-68
2021/12/25 13:33:11;;;;;;;3.83;2.13;;;1.60;83.50;;;;;;4958767;28;20034;-67
2021/12/25 13:35:37;;;;;;;6.35;2.50;;;1.60;83.10;;;;;;4957681;28;20034;-68
2021/12/25 13:38:03;;;;;;;5.43;2.63;;;1.60;82.80;;;;;;4959445;28;20145;-68
2021/12/25 13:40:29;;;;;;;6.45;2.67;;;1.50;82.50;;;;;;4957746;28;20076;-68
2021/12/25 13:43:02;;;;;;;7.32;2.70;;;1.50;82.50;;;;;;4960101;28;20042;-68
2021/12/25 13:45:27;;;;;;;5.50;3.20;;;1.50;82.50;;;;;;4961395;28;20500;-68
2021/12/25 13:47:57;;;;;;;4.68;2.50;;;1.60;82.50;;;;;;4965392;28;20074;-68
2021/12/25 13:50:22;;;;;;;5.30;2.75;;;1.60;82.40;;;;;;4970166;28;20030;-69
2021/12/25 13:52:58;;;;;;;6.72;3.33;;;1.60;82.30;;;;;;4961601;28;20548;-69
2021/12/25 13:55:30;;;;;;;5.93;2.70;;;1.50;82.40;;;;;;4967038;28;20037;-68
2021/12/25 13:58:08;;;;;;;5.10;2.95;;;1.60;82.30;;;;;;4970826;28;20039;-67